Time;durP1;ratioP1;P1;durP2;ratioP2;P2;SDS_P1;SDS_P2;PMS_P1;PMS_P2;Temp;Humidity;BMP_temperature;BMP_pressure;BME280_temperature;BME280_humidity;BME280_pressure;Samples;Min_cycle;Max_cycle;Signal;HPM_P1;HPM_P2
2022/07/30 00:02:22;;;;;;;3.40;3.00;;;17.80;99.90;;;;;;5054882;28;20103;-55
2022/07/30 00:04:48;;;;;;;4.28;3.17;;;17.90;99.90;;;;;;5054882;28;20039;-56
2022/07/30 00:07:14;;;;;;;5.38;3.40;;;17.90;99.90;;;;;;5054450;28;20029;-55
2022/07/30 00:09:40;;;;;;;3.53;3.22;;;17.90;99.90;;;;;;5055249;28;20104;-56
2022/07/30 00:12:06;;;;;;;4.10;3.30;;;17.90;99.90;;;;;;5055066;28;20432;-55
2022/07/30 00:14:33;;;;;;;3.65;3.10;;;17.90;99.90;;;;;;5054705;28;20031;-56
2022/07/30 00:17:00;;;;;;;3.33;2.95;;;17.80;99.90;;;;;;5055016;28;20071;-55
2022/07/30 00:19:26;;;;;;;3.35;2.75;;;17.80;99.90;;;;;;5054510;28;20029;-55
2022/07/30 00:21:53;;;;;;;3.78;3.08;;;17.80;99.90;;;;;;5054466;28;20029;-56
2022/07/30 00:24:19;;;;;;;3.78;2.88;;;17.80;99.90;;;;;;5054562;28;20470;-56
2022/07/30 00:26:45;;;;;;;3.67;2.80;;;17.80;99.90;;;;;;5055000;28;20037;-56
2022/07/30 00:29:11;;;;;;;3.40;3.10;;;17.70;99.90;;;;;;5054591;28;20107;-56
2022/07/30 00:31:37;;;;;;;3.92;3.10;;;17.50;99.90;;;;;;5054477;28;20052;-55
2022/07/30 00:34:03;;;;;;;3.78;2.90;;;17.50;99.90;;;;;;5054898;28;20033;-56
2022/07/30 00:36:28;;;;;;;4.50;3.65;;;17.50;99.90;;;;;;5054067;28;20075;-55
2022/07/30 00:38:54;;;;;;;4.07;2.78;;;17.50;99.90;;;;;;5054297;28;20029;-56
2022/07/30 00:41:20;;;;;;;3.78;2.97;;;17.50;99.90;;;;;;5054171;28;20025;-56
2022/07/30 00:43:46;;;;;;;3.55;2.70;;;17.50;99.90;;;;;;5053902;28;20081;-55
2022/07/30 00:46:13;;;;;;;3.13;2.83;;;17.40;99.90;;;;;;5054494;28;20079;-56
2022/07/30 00:48:39;;;;;;;3.45;2.70;;;17.40;99.90;;;;;;5053942;28;20049;-56
2022/07/30 00:51:05;;;;;;;2.85;2.47;;;17.40;99.90;;;;;;5053881;28;20033;-56
2022/07/30 00:53:31;;;;;;;4.15;2.60;;;17.40;99.90;;;;;;5054196;28;20032;-56
2022/07/30 00:55:57;;;;;;;3.20;2.38;;;17.40;99.90;;;;;;5054048;28;20018;-56
2022/07/30 00:58:23;;;;;;;2.58;2.38;;;17.40;99.90;;;;;;5054214;28;20121;-54
2022/07/30 01:00:48;;;;;;;3.20;2.67;;;17.40;99.90;;;;;;5053949;28;20040;-55
2022/07/30 01:03:14;;;;;;;3.00;2.60;;;17.30;99.90;;;;;;5053829;28;20017;-56
2022/07/30 01:05:40;;;;;;;3.15;2.35;;;17.30;99.90;;;;;;5053334;28;20033;-56
2022/07/30 01:08:06;;;;;;;2.78;2.30;;;17.20;99.90;;;;;;5053759;28;20029;-57
2022/07/30 01:10:32;;;;;;;2.88;2.50;;;17.10;99.90;;;;;;5053917;28;20036;-56
2022/07/30 01:13:00;;;;;;;2.78;2.30;;;17.00;99.90;;;;;;5054144;28;20032;-56
2022/07/30 01:15:27;;;;;;;2.60;2.40;;;17.10;99.90;;;;;;5053391;28;20025;-57
2022/07/30 01:17:55;;;;;;;3.28;2.50;;;17.10;99.90;;;;;;5054072;28;20116;-56
2022/07/30 01:20:48;;;;;;;2.70;2.50;;;17.10;99.90;;;;;;5053156;28;20021;-56
2022/07/30 01:23:23;;;;;;;2.85;2.60;;;17.10;99.90;;;;;;5052996;28;20044;-56
2022/07/30 01:25:57;;;;;;;2.70;2.50;;;17.10;99.90;;;;;;5052836;28;20051;-55
2022/07/30 01:28:27;;;;;;;2.67;2.40;;;17.00;99.90;;;;;;5053736;28;20020;-56
2022/07/30 01:30:54;;;;;;;3.10;2.80;;;17.00;99.90;;;;;;5053252;28;20120;-56
2022/07/30 01:33:21;;;;;;;4.00;2.70;;;16.80;99.90;;;;;;5053419;28;20025;-56
2022/07/30 01:35:49;;;;;;;4.13;2.47;;;16.80;99.90;;;;;;5053150;28;20413;-55
2022/07/30 01:38:20;;;;;;;2.90;2.70;;;16.80;99.90;;;;;;5052821;28;20017;-56
2022/07/30 01:40:47;;;;;;;3.78;2.80;;;16.80;99.90;;;;;;5053157;28;20529;-56
2022/07/30 01:43:15;;;;;;;3.33;2.70;;;16.80;99.90;;;;;;5053301;28;20051;-56
2022/07/30 01:45:42;;;;;;;3.00;2.33;;;16.80;99.90;;;;;;5052812;28;20094;-56
2022/07/30 01:48:10;;;;;;;4.72;2.35;;;16.80;99.90;;;;;;5052314;28;20496;-55
2022/07/30 01:50:37;;;;;;;3.30;2.30;;;16.80;99.90;;;;;;5052762;28;20416;-56
2022/07/30 01:53:04;;;;;;;2.78;2.45;;;16.80;99.90;;;;;;5053443;28;20099;-56
2022/07/30 01:55:35;;;;;;;3.65;2.92;;;16.80;99.90;;;;;;5052726;28;20029;-57
2022/07/30 01:58:04;;;;;;;3.17;2.83;;;16.60;99.90;;;;;;5053069;28;20025;-56
2022/07/30 02:00:35;;;;;;;3.00;2.63;;;16.50;99.90;;;;;;5052843;28;20024;-55
2022/07/30 02:03:01;;;;;;;3.92;2.72;;;16.40;99.90;;;;;;5052807;28;20025;-55
2022/07/30 02:05:30;;;;;;;2.90;2.65;;;16.40;99.90;;;;;;5052701;28;20045;-56
2022/07/30 02:08:34;;;;;;;3.40;3.10;;;16.40;99.90;;;;;;5051431;28;20124;-56
2022/07/30 02:11:07;;;;;;;3.63;2.60;;;16.40;99.90;;;;;;5030315;28;20033;-55
2022/07/30 02:13:36;;;;;;;2.70;2.50;;;16.50;99.90;;;;;;5030297;28;20029;-55
2022/07/30 02:16:10;;;;;;;2.90;2.50;;;16.40;99.90;;;;;;5030605;28;20514;-57
2022/07/30 02:18:44;;;;;;;3.15;2.50;;;16.40;99.90;;;;;;5030135;28;20091;-57
2022/07/30 02:21:11;;;;;;;3.22;2.67;;;16.40;99.90;;;;;;5030267;28;20038;-56
2022/07/30 02:23:44;;;;;;;3.08;2.45;;;16.30;99.90;;;;;;5030015;28;20399;-57
2022/07/30 02:26:17;;;;;;;3.03;2.50;;;16.30;99.90;;;;;;5029923;28;20112;-57
2022/07/30 02:28:46;;;;;;;3.47;2.40;;;16.30;99.90;;;;;;5029958;28;20049;-57
2022/07/30 02:31:14;;;;;;;2.47;2.28;;;16.20;99.90;;;;;;5030072;28;20084;-56
2022/07/30 02:33:43;;;;;;;3.58;2.55;;;16.20;99.90;;;;;;5030011;28;20026;-56
2022/07/30 02:36:10;;;;;;;3.30;2.15;;;16.20;99.90;;;;;;5030080;28;20111;-55
2022/07/30 02:38:41;;;;;;;2.47;2.28;;;16.20;99.90;;;;;;5030019;28;20041;-56
2022/07/30 02:41:10;;;;;;;5.78;2.50;;;16.10;99.90;;;;;;5030003;28;20044;-55
2022/07/30 02:43:38;;;;;;;2.72;2.40;;;16.20;99.90;;;;;;5029618;28;20077;-55
2022/07/30 02:46:06;;;;;;;2.75;2.55;;;16.20;99.90;;;;;;5030519;28;20052;-57
2022/07/30 02:48:33;;;;;;;3.17;2.35;;;16.20;99.90;;;;;;5031856;28;20028;-56
2022/07/30 02:51:01;;;;;;;2.75;2.55;;;16.10;99.90;;;;;;5032472;28;20053;-56
2022/07/30 02:53:28;;;;;;;3.42;3.05;;;16.00;99.90;;;;;;5031926;28;20040;-54
2022/07/30 02:55:56;;;;;;;3.15;2.70;;;15.90;99.90;;;;;;5032062;28;20112;-56
2022/07/30 02:58:24;;;;;;;3.05;2.83;;;15.80;99.90;;;;;;5031572;28;20113;-56
2022/07/30 03:00:52;;;;;;;3.22;2.90;;;15.80;99.90;;;;;;5030881;28;20057;-54
2022/07/30 03:03:19;;;;;;;3.55;3.22;;;15.90;99.90;;;;;;5031826;28;20027;-56
2022/07/30 03:05:48;;;;;;;3.45;3.15;;;15.80;99.90;;;;;;5032102;28;20041;-56
2022/07/30 03:08:15;;;;;;;3.95;3.47;;;15.80;99.90;;;;;;5031767;28;20017;-56
2022/07/30 03:10:43;;;;;;;4.68;3.53;;;15.90;99.90;;;;;;5031759;28;20033;-55
2022/07/30 03:13:10;;;;;;;3.10;2.80;;;15.90;99.90;;;;;;5032214;28;20031;-57
2022/07/30 03:15:43;;;;;;;4.32;3.90;;;15.70;99.90;;;;;;5031406;28;20445;-56
2022/07/30 03:18:12;;;;;;;5.47;3.80;;;15.70;99.90;;;;;;5031668;28;20120;-55
2022/07/30 03:20:40;;;;;;;3.88;3.30;;;15.60;99.90;;;;;;5031656;28;20528;-56
2022/07/30 03:23:06;;;;;;;4.60;3.42;;;15.70;99.90;;;;;;5031974;28;20017;-55
2022/07/30 03:25:34;;;;;;;3.90;3.58;;;15.70;99.90;;;;;;5031147;28;20042;-55
2022/07/30 03:28:02;;;;;;;3.58;3.28;;;15.70;99.90;;;;;;5031851;28;20026;-55
2022/07/30 03:30:29;;;;;;;6.07;4.30;;;15.60;99.90;;;;;;5031116;28;20029;-56
2022/07/30 03:32:55;;;;;;;4.10;3.70;;;15.60;99.90;;;;;;5031554;28;20014;-55
2022/07/30 03:35:23;;;;;;;4.35;3.40;;;15.50;99.90;;;;;;5031700;28;20104;-55
2022/07/30 03:37:50;;;;;;;3.80;3.50;;;15.50;99.90;;;;;;5036089;28;20048;-55
2022/07/30 03:40:17;;;;;;;4.60;4.18;;;15.50;99.90;;;;;;5051419;28;20029;-55
2022/07/30 03:42:44;;;;;;;8.15;5.28;;;15.50;99.90;;;;;;5050886;28;20053;-57
2022/07/30 03:45:12;;;;;;;6.20;5.60;;;15.40;99.90;;;;;;5050990;28;20040;-56
2022/07/30 03:47:40;;;;;;;6.28;5.40;;;15.40;99.90;;;;;;5051279;28;20497;-54
2022/07/30 03:50:08;;;;;;;7.07;6.18;;;15.40;99.90;;;;;;5051131;28;20083;-56
2022/07/30 03:52:37;;;;;;;5.65;4.60;;;15.40;99.90;;;;;;5051276;28;20029;-56
2022/07/30 03:55:05;;;;;;;5.72;4.78;;;15.40;99.90;;;;;;5051223;28;20560;-55
2022/07/30 03:57:31;;;;;;;5.18;4.20;;;15.40;99.90;;;;;;5051704;28;20024;-55
2022/07/30 03:59:57;;;;;;;5.93;4.60;;;15.40;99.90;;;;;;5051100;28;20096;-54
2022/07/30 04:02:23;;;;;;;4.50;4.10;;;15.40;99.90;;;;;;5051456;28;20148;-56
2022/07/30 04:04:49;;;;;;;6.50;4.25;;;15.40;99.90;;;;;;5049942;28;20048;-56
2022/07/30 04:07:14;;;;;;;4.10;3.75;;;15.40;99.90;;;;;;5051526;28;20485;-56
2022/07/30 04:09:40;;;;;;;4.00;3.60;;;15.40;99.90;;;;;;5050913;28;20059;-57
2022/07/30 04:12:06;;;;;;;5.68;4.10;;;15.30;99.90;;;;;;5054118;28;20377;-55
2022/07/30 04:14:42;;;;;;;4.00;3.60;;;15.20;99.90;;;;;;5054791;28;20116;-55
2022/07/30 04:17:18;;;;;;;3.90;3.50;;;15.20;99.90;;;;;;5054580;28;20021;-56
2022/07/30 04:19:49;;;;;;;7.90;4.00;;;15.20;99.90;;;;;;5054921;28;20090;-57
2022/07/30 04:22:20;;;;;;;5.10;3.80;;;15.30;99.90;;;;;;5053249;28;20478;-52
2022/07/30 04:24:48;;;;;;;3.65;3.35;;;15.30;99.90;;;;;;5054526;28;20025;-56
2022/07/30 04:27:15;;;;;;;4.55;3.60;;;15.30;99.90;;;;;;5054645;28;20108;-57
2022/07/30 04:29:41;;;;;;;5.97;3.85;;;15.20;99.90;;;;;;5054199;28;20032;-56
2022/07/30 04:32:11;;;;;;;5.20;4.30;;;15.20;99.90;;;;;;5054451;28;20079;-56
2022/07/30 04:34:52;;;;;;;5.15;3.60;;;15.10;99.90;;;;;;5054885;28;20067;-56
2022/07/30 04:37:22;;;;;;;4.20;3.80;;;15.10;99.90;;;;;;5054247;28;20017;-56
2022/07/30 04:39:50;;;;;;;4.80;3.60;;;15.10;99.90;;;;;;5054173;28;20103;-55
2022/07/30 04:42:15;;;;;;;4.00;3.70;;;15.10;99.90;;;;;;5053792;28;20110;-55
2022/07/30 04:44:41;;;;;;;5.65;4.20;;;15.20;99.90;;;;;;5054018;28;20033;-57
2022/07/30 04:47:07;;;;;;;3.63;3.30;;;15.10;99.90;;;;;;5054074;28;20075;-54
2022/07/30 04:49:33;;;;;;;4.47;3.92;;;15.10;99.90;;;;;;5053946;28;20041;-56
2022/07/30 04:52:00;;;;;;;4.35;3.95;;;15.10;99.90;;;;;;5054100;28;20426;-55
2022/07/30 04:54:27;;;;;;;5.88;4.07;;;15.00;99.90;;;;;;5054470;28;20013;-56
2022/07/30 04:56:53;;;;;;;4.68;3.90;;;15.00;99.90;;;;;;5053620;28;20025;-56
2022/07/30 04:59:22;;;;;;;6.18;4.10;;;15.00;99.90;;;;;;5054075;28;20086;-55
2022/07/30 05:01:49;;;;;;;5.85;4.18;;;15.00;99.90;;;;;;5053700;28;20472;-57
2022/07/30 05:04:17;;;;;;;4.85;3.78;;;14.90;99.90;;;;;;5053981;28;20025;-56
2022/07/30 05:06:43;;;;;;;4.78;3.90;;;15.00;99.90;;;;;;5053891;28;20033;-56
2022/07/30 05:09:10;;;;;;;4.85;4.15;;;15.00;99.90;;;;;;5054128;28;20060;-55
2022/07/30 05:11:36;;;;;;;3.88;3.58;;;14.90;99.90;;;;;;5053291;28;20044;-57
2022/07/30 05:14:02;;;;;;;4.97;4.32;;;15.00;99.90;;;;;;5053741;28;20021;-57
2022/07/30 05:16:28;;;;;;;6.35;4.47;;;15.00;99.90;;;;;;5053650;28;20545;-56
2022/07/30 05:18:54;;;;;;;5.43;3.88;;;15.00;99.90;;;;;;5053540;28;20363;-57
2022/07/30 05:21:19;;;;;;;7.07;4.38;;;14.90;99.90;;;;;;5053607;28;20087;-56
2022/07/30 05:23:45;;;;;;;7.05;4.15;;;14.90;99.90;;;;;;5052522;28;20032;-57
2022/07/30 05:26:11;;;;;;;6.15;4.38;;;14.90;99.90;;;;;;5053236;28;20040;-56
2022/07/30 05:28:36;;;;;;;6.88;4.30;;;15.00;99.90;;;;;;5053305;28;20032;-56
2022/07/30 05:31:02;;;;;;;5.72;4.20;;;14.90;99.90;;;;;;5052538;28;20036;-55
2022/07/30 05:33:28;;;;;;;7.10;4.68;;;14.90;99.90;;;;;;5053387;28;20029;-56
2022/07/30 05:35:53;;;;;;;4.70;4.30;;;14.90;99.90;;;;;;5051979;28;20056;-56
2022/07/30 05:38:19;;;;;;;5.88;4.40;;;14.90;99.90;;;;;;5053419;28;20025;-57
2022/07/30 05:40:45;;;;;;;5.80;4.38;;;15.00;99.90;;;;;;5052926;28;20116;-56
2022/07/30 05:43:11;;;;;;;5.07;4.53;;;15.00;99.90;;;;;;5053090;28;20110;-56
2022/07/30 05:45:37;;;;;;;5.05;4.40;;;15.10;99.90;;;;;;5053006;28;20064;-56
2022/07/30 05:48:03;;;;;;;4.93;3.92;;;15.20;99.90;;;;;;5053404;28;20049;-57
2022/07/30 05:50:28;;;;;;;6.47;4.88;;;15.20;99.90;;;;;;5053304;28;20040;-57
2022/07/30 05:52:56;;;;;;;7.65;4.40;;;15.30;99.90;;;;;;5052851;28;20039;-56
2022/07/30 05:55:22;;;;;;;6.72;4.43;;;15.40;99.90;;;;;;5052649;28;20044;-56
2022/07/30 05:57:47;;;;;;;7.47;5.10;;;15.50;99.90;;;;;;5052960;28;20081;-57
2022/07/30 06:00:13;;;;;;;5.25;4.32;;;15.70;99.90;;;;;;5052940;28;20021;-57
2022/07/30 06:02:39;;;;;;;6.05;5.45;;;15.80;99.90;;;;;;5052819;28;20033;-56
2022/07/30 06:05:05;;;;;;;7.15;5.20;;;15.90;99.90;;;;;;5051698;28;20395;-56
2022/07/30 06:07:31;;;;;;;6.32;5.60;;;16.00;99.90;;;;;;5052552;28;20045;-56
2022/07/30 06:09:59;;;;;;;6.88;6.00;;;16.20;99.90;;;;;;5052534;28;20067;-56
2022/07/30 06:12:29;;;;;;;9.10;7.90;;;16.30;99.90;;;;;;5052724;28;20040;-57
2022/07/30 06:14:55;;;;;;;8.88;7.43;;;16.60;99.90;;;;;;5052396;28;20017;-56
2022/07/30 06:17:20;;;;;;;8.80;6.78;;;16.90;99.90;;;;;;5052622;28;20037;-57
2022/07/30 06:19:47;;;;;;;9.50;6.22;;;17.30;99.90;;;;;;5052765;28;20482;-57
2022/07/30 06:22:13;;;;;;;7.68;6.78;;;17.30;99.90;;;;;;5052389;28;20401;-56
2022/07/30 06:24:38;;;;;;;7.78;6.97;;;17.70;99.90;;;;;;5052142;28;20021;-57
2022/07/30 06:27:04;;;;;;;7.22;6.55;;;17.90;99.90;;;;;;5052655;28;20470;-56
2022/07/30 06:29:30;;;;;;;6.85;6.13;;;18.10;99.90;;;;;;5052256;28;20052;-56
2022/07/30 06:31:56;;;;;;;8.43;5.75;;;18.60;99.90;;;;;;5052197;28;20071;-57
2022/07/30 06:34:22;;;;;;;7.00;6.15;;;18.80;99.90;;;;;;5052138;28;20427;-57
2022/07/30 06:36:48;;;;;;;6.32;5.72;;;18.90;99.90;;;;;;5052206;28;20021;-57
2022/07/30 06:39:14;;;;;;;6.47;5.80;;;19.70;99.90;;;;;;5052255;28;20456;-58
2022/07/30 06:41:40;;;;;;;6.07;5.47;;;19.90;99.90;;;;;;5052340;28;20378;-57
2022/07/30 06:44:05;;;;;;;6.65;5.10;;;20.70;99.90;;;;;;5051912;28;20075;-57
2022/07/30 06:46:31;;;;;;;5.70;5.10;;;20.70;99.90;;;;;;5051876;28;20112;-57
2022/07/30 06:48:58;;;;;;;5.03;4.25;;;20.70;99.90;;;;;;5052306;28;20021;-57
2022/07/30 06:51:23;;;;;;;4.43;4.03;;;21.00;99.90;;;;;;5052156;28;20367;-57
2022/07/30 06:53:49;;;;;;;6.38;4.40;;;20.90;99.90;;;;;;5051522;28;20031;-57
2022/07/30 06:56:15;;;;;;;4.53;3.70;;;21.40;99.90;;;;;;5050544;28;20115;-57
2022/07/30 06:58:40;;;;;;;4.18;3.78;;;21.60;99.90;;;;;;5051922;28;20078;-57
2022/07/30 07:01:06;;;;;;;3.90;3.45;;;22.10;99.90;;;;;;5051902;28;20090;-58
2022/07/30 07:03:32;;;;;;;4.45;3.58;;;22.20;99.90;;;;;;5051694;28;20040;-58
2022/07/30 07:05:57;;;;;;;4.28;3.10;;;22.50;99.90;;;;;;5051722;28;20053;-57
2022/07/30 07:08:23;;;;;;;5.97;2.80;;;22.80;99.90;;;;;;5051620;28;20017;-57
2022/07/30 07:10:49;;;;;;;3.42;2.50;;;23.70;99.90;;;;;;5051822;28;20543;-57
2022/07/30 07:13:15;;;;;;;3.95;2.95;;;24.60;99.90;;;;;;5051434;28;20133;-58
2022/07/30 07:15:41;;;;;;;2.88;2.67;;;25.20;99.90;;;;;;5050899;28;20032;-58
2022/07/30 07:18:07;;;;;;;2.65;2.30;;;25.70;99.90;;;;;;5051505;28;20478;-59
2022/07/30 07:20:33;;;;;;;2.58;2.38;;;25.80;99.90;;;;;;5051723;28;20450;-58
2022/07/30 07:23:00;;;;;;;5.28;2.83;;;25.20;99.90;;;;;;5051322;28;20025;-58
2022/07/30 07:25:26;;;;;;;3.15;2.63;;;25.60;99.90;;;;;;5051587;28;20033;-57
2022/07/30 07:27:52;;;;;;;2.65;2.10;;;25.80;99.90;;;;;;5052141;28;20056;-57
2022/07/30 07:30:18;;;;;;;2.40;2.05;;;26.80;99.90;;;;;;5051597;28;20032;-57
2022/07/30 07:32:43;;;;;;;2.50;1.80;;;26.60;99.90;;;;;;5051534;28;20053;-57
2022/07/30 07:35:11;;;;;;;3.78;1.85;;;27.10;99.90;;;;;;5051522;28;20075;-58
2022/07/30 07:37:36;;;;;;;1.98;1.50;;;27.30;99.90;;;;;;5051546;28;20447;-57
2022/07/30 07:40:03;;;;;;;2.17;1.98;;;28.50;99.90;;;;;;5051614;28;20104;-57
2022/07/30 07:42:28;;;;;;;2.10;1.90;;;27.80;99.90;;;;;;5051263;28;20175;-57
2022/07/30 07:44:54;;;;;;;2.85;1.50;;;27.90;99.90;;;;;;5051908;28;20059;-58
2022/07/30 07:47:20;;;;;;;1.75;1.65;;;28.40;99.90;;;;;;5055098;28;20033;-57
2022/07/30 07:49:45;;;;;;;3.28;1.63;;;29.90;99.90;;;;;;5055391;28;20172;-57
2022/07/30 07:52:11;;;;;;;2.05;1.58;;;30.90;99.90;;;;;;5055210;28;20029;-57
2022/07/30 07:54:37;;;;;;;3.05;1.80;;;30.20;99.90;;;;;;5055355;28;20397;-57
2022/07/30 07:57:06;;;;;;;2.22;1.70;;;30.20;99.90;;;;;;5055314;28;20025;-58
2022/07/30 07:59:33;;;;;;;2.78;1.42;;;30.60;99.90;;;;;;5054993;28;20037;-57
2022/07/30 08:01:58;;;;;;;1.95;1.60;;;29.90;99.90;;;;;;5055057;28;20103;-57
2022/07/30 08:04:24;;;;;;;3.95;1.80;;;30.20;99.90;;;;;;5055190;28;20469;-57
2022/07/30 08:06:50;;;;;;;2.55;1.73;;;30.50;99.90;;;;;;5054510;28;20036;-58
2022/07/30 08:09:15;;;;;;;2.50;1.70;;;30.30;99.90;;;;;;5054353;28;20490;-57
2022/07/30 08:11:41;;;;;;;2.03;1.70;;;31.30;99.90;;;;;;5054990;28;20033;-57
2022/07/30 08:14:07;;;;;;;2.42;1.75;;;31.50;98.80;;;;;;5054970;28;20029;-57
2022/07/30 08:16:32;;;;;;;3.10;1.90;;;32.20;98.70;;;;;;5054819;28;20494;-58
2022/07/30 08:18:58;;;;;;;2.38;1.80;;;31.80;97.30;;;;;;5055360;28;20059;-57
2022/07/30 08:21:24;;;;;;;2.15;1.80;;;31.70;97.30;;;;;;5054205;28;20021;-57
2022/07/30 08:23:50;;;;;;;4.63;2.15;;;32.60;97.30;;;;;;5055244;28;20064;-57
2022/07/30 08:26:15;;;;;;;4.40;2.25;;;33.60;95.10;;;;;;5054788;28;20033;-57
2022/07/30 08:28:42;;;;;;;1.83;1.70;;;34.00;95.50;;;;;;5053867;28;20420;-58
2022/07/30 08:31:08;;;;;;;2.58;1.88;;;35.30;93.30;;;;;;5054224;28;20033;-57
2022/07/30 08:33:34;;;;;;;2.70;2.00;;;34.60;93.50;;;;;;5054465;28;20478;-57
2022/07/30 08:36:01;;;;;;;2.83;1.90;;;34.60;95.30;;;;;;5054368;28;20029;-57
2022/07/30 08:38:26;;;;;;;4.00;2.40;;;34.30;94.40;;;;;;5054341;28;20473;-57
2022/07/30 08:40:55;;;;;;;2.08;1.88;;;34.30;94.10;;;;;;5054531;28;20021;-57
2022/07/30 08:43:24;;;;;;;3.58;2.00;;;35.50;93.10;;;;;;5054148;28;20079;-57
2022/07/30 08:45:51;;;;;;;2.70;1.88;;;35.80;92.50;;;;;;5054523;28;20037;-57
2022/07/30 08:48:19;;;;;;;2.22;1.60;;;35.70;92.80;;;;;;5054017;28;20039;-58
2022/07/30 08:50:46;;;;;;;2.72;1.67;;;35.50;91.90;;;;;;5053359;28;20037;-57
2022/07/30 08:53:12;;;;;;;2.10;1.67;;;35.80;92.90;;;;;;5051153;28;20027;-57
2022/07/30 08:55:40;;;;;;;1.88;1.67;;;35.30;91.80;;;;;;5053042;28;20485;-57
2022/07/30 08:58:28;;;;;;;2.10;1.50;;;35.20;90.70;;;;;;5052755;28;20021;-57
2022/07/30 09:00:54;;;;;;;1.90;1.50;;;35.10;92.00;;;;;;5053818;28;20029;-58
2022/07/30 09:03:20;;;;;;;2.47;1.63;;;34.60;92.20;;;;;;5054399;28;20123;-57
2022/07/30 09:05:46;;;;;;;2.60;1.63;;;34.40;91.70;;;;;;5069992;28;20095;-57
2022/07/30 09:08:12;;;;;;;1.90;1.70;;;34.50;92.40;;;;;;5053570;28;20510;-57
2022/07/30 09:10:37;;;;;;;3.20;1.63;;;34.20;92.20;;;;;;5053714;28;20440;-58
2022/07/30 09:13:03;;;;;;;1.70;1.40;;;33.90;92.00;;;;;;5053410;28;20029;-57
2022/07/30 09:15:29;;;;;;;2.30;1.70;;;33.90;91.90;;;;;;5053337;28;20028;-57
2022/07/30 09:18:00;;;;;;;2.45;1.70;;;33.50;91.90;;;;;;5053134;28;20071;-58
2022/07/30 09:20:35;;;;;;;2.00;1.60;;;33.30;92.20;;;;;;5052950;28;20039;-57
2022/07/30 09:23:05;;;;;;;2.33;1.77;;;33.10;92.50;;;;;;5053194;28;20375;-57
2022/07/30 09:25:42;;;;;;;2.30;1.80;;;32.50;92.20;;;;;;5051959;28;20075;-58
2022/07/30 09:28:09;;;;;;;1.90;1.70;;;32.00;92.70;;;;;;5052775;28;20489;-57
2022/07/30 09:30:52;;;;;;;2.58;1.50;;;31.70;92.70;;;;;;5053092;28;20095;-57
2022/07/30 09:33:48;;;;;;;2.08;1.60;;;31.50;93.30;;;;;;5052958;28;20061;-58
2022/07/30 09:36:17;;;;;;;2.92;1.75;;;31.60;93.90;;;;;;5048046;28;20029;-57
2022/07/30 09:38:50;;;;;;;2.38;1.88;;;31.70;93.20;;;;;;5053056;28;20099;-57
2022/07/30 09:41:18;;;;;;;3.65;1.73;;;32.40;93.00;;;;;;5053254;28;20478;-57
2022/07/30 09:43:51;;;;;;;3.50;1.75;;;34.20;90.80;;;;;;5053425;28;20083;-58
2022/07/30 09:46:17;;;;;;;1.70;1.60;;;34.50;90.90;;;;;;5053312;28;20545;-58
2022/07/30 09:48:47;;;;;;;1.95;1.67;;;34.80;89.40;;;;;;5052999;28;20116;-57
2022/07/30 09:51:13;;;;;;;2.30;1.70;;;35.00;89.90;;;;;;5052828;28;20056;-57
2022/07/30 09:54:00;;;;;;;2.97;1.80;;;34.50;90.40;;;;;;5052902;28;20048;-56
2022/07/30 09:56:27;;;;;;;3.55;1.90;;;34.20;90.50;;;;;;5040427;28;20035;-57
2022/07/30 09:58:54;;;;;;;3.85;1.92;;;34.80;90.10;;;;;;5072174;28;20024;-58
2022/07/30 10:01:20;;;;;;;2.58;1.60;;;37.60;83.70;;;;;;5055142;28;20036;-58
2022/07/30 10:03:46;;;;;;;2.10;1.70;;;37.10;84.80;;;;;;5052753;28;20021;-58
2022/07/30 10:06:12;;;;;;;1.73;1.60;;;37.70;81.30;;;;;;5052520;28;20111;-57
2022/07/30 10:08:48;;;;;;;2.70;1.73;;;38.10;81.30;;;;;;5052275;28;20021;-58
2022/07/30 10:11:18;;;;;;;2.60;1.55;;;38.60;79.00;;;;;;5052666;28;20040;-57
2022/07/30 10:13:45;;;;;;;6.18;1.80;;;40.00;75.90;;;;;;5052058;28;20028;-58
2022/07/30 10:16:12;;;;;;;3.65;1.77;;;38.70;78.80;;;;;;5051948;28;20405;-57
2022/07/30 10:18:39;;;;;;;2.90;1.30;;;39.30;79.20;;;;;;5052616;28;20111;-57
2022/07/30 10:21:06;;;;;;;1.88;1.40;;;39.30;78.50;;;;;;5054919;28;20094;-57
2022/07/30 10:23:34;;;;;;;1.75;1.50;;;39.20;79.60;;;;;;5063862;28;20027;-57
2022/07/30 10:26:00;;;;;;;1.70;1.60;;;41.40;77.30;;;;;;5072510;28;20039;-57
2022/07/30 10:28:28;;;;;;;1.98;1.70;;;43.40;72.80;;;;;;5060211;28;20104;-58
2022/07/30 10:30:55;;;;;;;3.38;1.70;;;42.20;74.90;;;;;;5051174;28;20445;-58
2022/07/30 10:33:24;;;;;;;1.83;1.35;;;40.00;77.20;;;;;;5052174;28;20478;-58
2022/07/30 10:35:50;;;;;;;1.73;1.52;;;39.20;77.00;;;;;;5051576;28;20040;-58
2022/07/30 10:38:19;;;;;;;3.90;1.85;;;38.80;77.20;;;;;;5050716;28;20053;-58
2022/07/30 10:41:00;;;;;;;4.13;1.80;;;38.20;76.90;;;;;;5051704;28;20184;-58
2022/07/30 10:43:43;;;;;;;2.15;1.77;;;37.70;79.20;;;;;;5051645;28;20476;-57
2022/07/30 10:46:25;;;;;;;2.58;1.80;;;37.50;77.10;;;;;;5051568;28;20032;-58
2022/07/30 10:48:54;;;;;;;2.03;1.80;;;37.20;79.20;;;;;;5050375;28;20055;-58
2022/07/30 10:51:21;;;;;;;1.67;1.58;;;37.20;78.40;;;;;;5051853;28;20029;-57
2022/07/30 10:53:47;;;;;;;1.92;1.67;;;37.00;77.90;;;;;;5051476;28;20153;-58
2022/07/30 10:56:17;;;;;;;2.13;1.90;;;35.60;78.90;;;;;;5051562;28;20021;-57
2022/07/30 10:59:18;;;;;;;2.97;2.20;;;35.20;81.60;;;;;;5051343;28;20083;-58
2022/07/30 11:01:47;;;;;;;3.25;2.10;;;36.30;81.80;;;;;;5029421;28;20032;-58
2022/07/30 11:04:27;;;;;;;2.25;2.05;;;36.10;80.70;;;;;;5028929;28;20048;-58
2022/07/30 11:07:21;;;;;;;4.10;2.63;;;36.20;81.30;;;;;;5029204;28;20164;-58
2022/07/30 11:09:49;;;;;;;4.75;2.70;;;35.70;81.80;;;;;;5029001;28;20040;-58
2022/07/30 11:12:14;;;;;;;3.78;2.33;;;35.80;83.10;;;;;;5027229;28;20094;-58
2022/07/30 11:14:46;;;;;;;3.25;2.30;;;35.90;83.10;;;;;;5028657;28;20104;-58
2022/07/30 11:17:18;;;;;;;2.80;2.25;;;36.30;82.50;;;;;;5029587;28;20038;-58
2022/07/30 11:20:08;;;;;;;3.67;2.60;;;36.10;81.10;;;;;;5028590;28;20040;-54
2022/07/30 11:22:39;;;;;;;2.50;2.30;;;35.60;80.20;;;;;;5029377;28;20041;-58
2022/07/30 11:25:28;;;;;;;2.95;2.28;;;35.40;81.70;;;;;;5029296;28;20046;-58
2022/07/30 11:27:55;;;;;;;2.75;2.47;;;35.50;82.30;;;;;;5018580;28;20045;-58
2022/07/30 11:30:21;;;;;;;2.60;2.17;;;36.00;81.10;;;;;;5028933;28;20067;-57
2022/07/30 11:32:54;;;;;;;2.40;2.20;;;35.80;82.00;;;;;;5029119;28;20113;-58
2022/07/30 11:35:23;;;;;;;2.65;2.33;;;35.60;80.70;;;;;;5028456;28;20406;-58
2022/07/30 11:38:06;;;;;;;2.65;2.40;;;35.60;81.00;;;;;;5035689;28;20025;-58
2022/07/30 11:41:01;;;;;;;3.35;2.30;;;35.70;80.60;;;;;;5051263;28;20041;-58
2022/07/30 11:43:32;;;;;;;3.38;2.28;;;35.60;81.30;;;;;;5024736;28;20712;-59
2022/07/30 11:46:09;;;;;;;2.88;2.40;;;35.30;82.20;;;;;;5025511;28;20041;-57
2022/07/30 11:48:36;;;;;;;3.10;2.20;;;35.40;81.40;;;;;;5029133;28;20502;-58
2022/07/30 11:51:03;;;;;;;2.50;2.30;;;35.40;81.20;;;;;;5028356;28;20100;-57
2022/07/30 11:53:28;;;;;;;3.70;2.40;;;35.10;82.80;;;;;;5028897;28;20033;-57
2022/07/30 11:55:58;;;;;;;2.40;2.15;;;35.10;80.60;;;;;;5028967;28;20117;-57
2022/07/30 11:58:36;;;;;;;2.10;1.90;;;35.10;81.80;;;;;;5012164;28;20033;-58
2022/07/30 12:01:10;;;;;;;2.80;2.60;;;35.20;78.20;;;;;;5029250;28;20418;-58
2022/07/30 12:03:40;;;;;;;2.58;2.00;;;35.00;81.00;;;;;;5029709;28;20224;-58
2022/07/30 12:06:08;;;;;;;2.28;2.08;;;34.70;80.30;;;;;;5018708;28;20038;-58
2022/07/30 12:08:45;;;;;;;2.45;2.22;;;34.90;80.20;;;;;;5009298;28;20450;-58
2022/07/30 12:11:12;;;;;;;2.75;2.50;;;35.00;79.70;;;;;;5009734;28;20425;-57
2022/07/30 12:13:39;;;;;;;3.22;2.20;;;34.70;80.30;;;;;;5008869;28;20044;-57
2022/07/30 12:16:12;;;;;;;3.65;2.20;;;34.90;79.70;;;;;;5009390;28;20073;-57
2022/07/30 12:18:38;;;;;;;2.38;1.98;;;35.30;78.60;;;;;;5009170;28;20029;-58
2022/07/30 12:21:14;;;;;;;2.08;1.60;;;35.10;80.00;;;;;;5027796;28;20033;-57
2022/07/30 12:23:42;;;;;;;1.92;1.63;;;34.90;81.50;;;;;;5031125;28;20033;-58
2022/07/30 12:26:19;;;;;;;2.72;1.48;;;34.90;82.50;;;;;;5031180;28;20112;-58
2022/07/30 12:28:45;;;;;;;2.70;1.50;;;34.80;83.20;;;;;;5031244;28;20449;-58
2022/07/30 12:31:14;;;;;;;1.75;1.60;;;35.30;82.40;;;;;;5034466;28;20401;-57
2022/07/30 12:33:40;;;;;;;1.83;1.58;;;34.60;82.70;;;;;;5053962;28;20020;-58
2022/07/30 12:36:07;;;;;;;2.10;1.73;;;34.20;84.30;;;;;;5054243;28;20025;-58
2022/07/30 12:38:49;;;;;;;2.40;1.70;;;34.20;83.00;;;;;;5053256;28;20081;-57
2022/07/30 12:41:15;;;;;;;2.30;1.60;;;34.20;83.60;;;;;;5048460;28;20036;-58
2022/07/30 12:43:48;;;;;;;2.58;1.48;;;34.20;84.10;;;;;;5053911;28;20041;-58
2022/07/30 12:46:25;;;;;;;4.20;1.80;;;34.40;84.40;;;;;;5054723;28;20049;-57
2022/07/30 12:49:02;;;;;;;1.67;1.55;;;34.40;83.10;;;;;;5053570;28;20043;-58
2022/07/30 12:51:31;;;;;;;1.80;1.65;;;34.20;83.30;;;;;;5053361;28;20036;-58
2022/07/30 12:53:58;;;;;;;2.17;1.42;;;33.90;85.00;;;;;;5055804;28;20061;-58
2022/07/30 12:56:26;;;;;;;2.88;1.83;;;34.10;83.10;;;;;;5070534;28;20398;-58